Time;durP1;ratioP1;P1;durP2;ratioP2;P2;SDS_P1;SDS_P2;PMS_P1;PMS_P2;Temp;Humidity;BMP_temperature;BMP_pressure;BME280_temperature;BME280_humidity;BME280_pressure;Samples;Min_cycle;Max_cycle;Signal;HPM_P1;HPM_P2
2021/04/30 00:01:22;;;;;;;21.42;14.60;;;11.40;67.20;;;;;;4975788;28;20373;-76
2021/04/30 00:03:48;;;;;;;25.10;14.82;;;11.40;67.20;;;;;;4975586;28;20417;-75
2021/04/30 00:06:14;;;;;;;21.60;15.10;;;11.40;67.20;;;;;;4974951;28;20123;-75
2021/04/30 00:08:40;;;;;;;20.77;13.60;;;11.30;67.30;;;;;;4976179;28;20117;-75
2021/04/30 00:11:07;;;;;;;22.55;13.45;;;11.30;67.50;;;;;;4975918;28;20081;-75
2021/04/30 00:13:37;;;;;;;22.40;14.10;;;11.20;67.60;;;;;;4975707;28;20105;-75
2021/04/30 00:16:05;;;;;;;19.48;13.10;;;11.20;67.80;;;;;;4975771;28;20161;-74
2021/04/30 00:18:31;;;;;;;22.23;13.65;;;11.20;68.00;;;;;;4975565;28;20035;-75
2021/04/30 00:20:59;;;;;;;18.70;13.02;;;11.10;68.10;;;;;;4975555;28;20038;-75
2021/04/30 00:23:26;;;;;;;18.00;12.05;;;11.10;68.30;;;;;;4974002;28;20066;-74
2021/04/30 00:25:53;;;;;;;18.92;12.65;;;11.10;68.50;;;;;;4974845;28;20051;-76
2021/04/30 00:28:20;;;;;;;18.17;12.45;;;11.00;68.70;;;;;;4975241;28;20078;-75
2021/04/30 00:30:46;;;;;;;21.52;11.60;;;11.00;68.80;;;;;;4975069;28;20058;-74
2021/04/30 00:33:11;;;;;;;18.50;11.45;;;10.90;68.90;;;;;;4974988;28;20042;-74
2021/04/30 00:35:37;;;;;;;17.58;11.68;;;10.90;69.00;;;;;;4975039;28;20027;-75
2021/04/30 00:38:04;;;;;;;15.80;11.60;;;10.90;69.10;;;;;;4974774;28;20078;-75
2021/04/30 00:40:30;;;;;;;17.70;11.52;;;10.90;69.30;;;;;;4975061;28;20027;-74
2021/04/30 00:42:56;;;;;;;16.45;11.63;;;10.90;69.30;;;;;;4974925;28;20034;-74
2021/04/30 00:45:23;;;;;;;17.60;11.98;;;10.90;69.50;;;;;;5006104;28;20034;-75
2021/04/30 00:47:51;;;;;;;15.93;12.07;;;10.90;69.50;;;;;;4973386;28;20034;-75
2021/04/30 00:50:18;;;;;;;15.68;12.07;;;10.80;69.60;;;;;;5006221;28;20018;-75
2021/04/30 00:52:44;;;;;;;15.65;12.23;;;10.80;69.70;;;;;;4974615;28;20106;-75
2021/04/30 00:55:14;;;;;;;19.88;12.85;;;10.80;69.80;;;;;;4974970;28;20078;-75
2021/04/30 00:57:46;;;;;;;18.05;11.95;;;10.70;69.90;;;;;;4975087;28;20027;-75
2021/04/30 01:00:13;;;;;;;20.13;12.52;;;10.70;70.00;;;;;;5006126;28;20030;-74
2021/04/30 01:02:42;;;;;;;19.83;12.85;;;10.70;70.00;;;;;;5005642;28;20031;-76
2021/04/30 01:05:09;;;;;;;16.08;12.05;;;10.60;70.10;;;;;;4974975;28;20093;-75
2021/04/30 01:07:34;;;;;;;18.27;12.60;;;10.60;70.20;;;;;;4974557;28;20026;-75
2021/04/30 01:10:01;;;;;;;19.23;12.65;;;10.60;70.30;;;;;;4972816;28;20030;-76
2021/04/30 01:12:26;;;;;;;19.30;13.10;;;10.60;70.50;;;;;;4974541;28;20073;-75
2021/04/30 01:14:53;;;;;;;21.52;16.00;;;10.60;70.50;;;;;;4974788;28;20473;-76
2021/04/30 01:17:18;;;;;;;21.95;16.30;;;10.60;70.60;;;;;;4974392;28;20027;-75
2021/04/30 01:19:44;;;;;;;27.65;18.15;;;10.50;70.70;;;;;;4973321;28;20121;-75
2021/04/30 01:22:10;;;;;;;27.20;17.83;;;10.50;70.80;;;;;;4974601;28;20382;-74
2021/04/30 01:24:36;;;;;;;27.80;18.27;;;10.50;71.00;;;;;;4974606;28;20022;-75
2021/04/30 01:27:02;;;;;;;27.83;17.85;;;10.40;71.10;;;;;;5005663;28;20444;-76
2021/04/30 01:29:29;;;;;;;22.45;16.35;;;10.40;71.20;;;;;;4974719;28;20101;-75
2021/04/30 01:31:55;;;;;;;25.08;16.23;;;10.40;71.30;;;;;;5006838;28;20027;-76
2021/04/30 01:34:21;;;;;;;23.10;15.18;;;10.40;71.50;;;;;;4975572;28;20038;-75
2021/04/30 01:36:48;;;;;;;20.83;13.98;;;10.40;72.10;;;;;;4974445;28;20803;-75
2021/04/30 01:39:14;;;;;;;21.20;13.27;;;10.40;72.50;;;;;;4974391;28;20059;-75
2021/04/30 01:41:42;;;;;;;19.80;13.60;;;10.40;72.10;;;;;;4974416;28;20450;-75
2021/04/30 01:44:13;;;;;;;18.27;13.48;;;10.40;72.10;;;;;;4974815;28;20376;-75
2021/04/30 01:46:40;;;;;;;24.42;14.40;;;10.40;72.30;;;;;;5005388;28;20411;-75
2021/04/30 01:49:08;;;;;;;17.58;12.75;;;10.40;72.30;;;;;;4974615;28;20026;-74
2021/04/30 01:51:35;;;;;;;19.00;12.82;;;10.40;72.40;;;;;;4974201;28;20033;-75
2021/04/30 01:54:05;;;;;;;20.30;13.05;;;10.40;72.50;;;;;;4974374;28;20059;-76
2021/04/30 01:56:31;;;;;;;17.88;13.43;;;10.40;72.50;;;;;;4974319;28;20026;-76
2021/04/30 01:58:57;;;;;;;16.70;12.60;;;10.40;72.60;;;;;;4974068;28;20050;-75
2021/04/30 02:01:22;;;;;;;19.58;13.20;;;10.40;72.70;;;;;;4974019;28;20065;-75
2021/04/30 02:03:48;;;;;;;19.17;12.95;;;10.40;72.70;;;;;;4974110;28;20030;-75
2021/04/30 02:06:14;;;;;;;19.90;13.70;;;10.30;72.70;;;;;;4973800;28;20408;-76
2021/04/30 02:08:40;;;;;;;21.73;14.07;;;10.30;73.30;;;;;;4973924;28;20350;-76
2021/04/30 02:11:06;;;;;;;18.13;13.65;;;10.30;72.80;;;;;;4973881;28;20058;-75
2021/04/30 02:13:32;;;;;;;29.00;16.00;;;10.30;72.90;;;;;;4974085;28;20797;-75
2021/04/30 02:15:58;;;;;;;27.00;17.33;;;10.30;73.10;;;;;;4975061;28;20023;-75
2021/04/30 02:18:24;;;;;;;23.27;16.45;;;10.30;73.10;;;;;;4974602;28;20019;-76
2021/04/30 02:20:51;;;;;;;18.67;14.65;;;10.30;73.20;;;;;;4974538;28;20023;-76
2021/04/30 02:23:18;;;;;;;24.75;16.30;;;10.20;73.20;;;;;;4974554;28;20023;-76
2021/04/30 02:25:44;;;;;;;18.95;13.20;;;10.20;73.20;;;;;;4973944;28;20102;-76
2021/04/30 02:28:10;;;;;;;19.13;14.00;;;10.20;73.40;;;;;;4973778;28;20098;-75
2021/04/30 02:30:39;;;;;;;27.50;15.63;;;10.20;73.50;;;;;;4973771;28;20436;-75
2021/04/30 02:33:05;;;;;;;20.95;14.55;;;10.20;73.70;;;;;;5004905;28;20023;-75
2021/04/30 02:35:37;;;;;;;19.40;14.38;;;10.20;73.80;;;;;;4973336;28;20023;-75
2021/04/30 02:38:05;;;;;;;24.10;16.30;;;10.10;73.90;;;;;;4974048;28;20027;-75
2021/04/30 02:40:32;;;;;;;22.45;15.70;;;10.20;74.00;;;;;;4973346;28;20042;-75
2021/04/30 02:43:02;;;;;;;21.08;15.93;;;10.10;74.00;;;;;;4973285;28;20073;-75
2021/04/30 02:45:28;;;;;;;23.35;16.70;;;10.10;74.10;;;;;;4973202;28;20509;-75
2021/04/30 02:47:56;;;;;;;21.83;16.30;;;10.10;74.20;;;;;;4973407;28;20059;-74
2021/04/30 02:50:24;;;;;;;22.98;16.23;;;10.10;74.30;;;;;;4972447;28;20033;-74
2021/04/30 02:52:50;;;;;;;22.27;16.73;;;10.20;74.50;;;;;;4973308;28;20027;-76
2021/04/30 02:55:22;;;;;;;26.23;16.77;;;10.20;74.60;;;;;;4973729;28;20027;-79
2021/04/30 02:57:56;;;;;;;23.30;15.77;;;10.40;75.00;;;;;;4973855;28;20023;-78
2021/04/30 03:00:23;;;;;;;23.52;15.10;;;10.80;75.30;;;;;;4973446;28;20038;-78
2021/04/30 03:02:49;;;;;;;24.02;14.98;;;11.20;75.10;;;;;;4973277;28;20110;-77
2021/04/30 03:05:16;;;;;;;22.67;15.13;;;11.80;74.60;;;;;;5004403;28;20161;-77
2021/04/30 03:07:42;;;;;;;18.65;14.27;;;12.40;73.60;;;;;;4973213;28;20452;-78
2021/04/30 03:10:08;;;;;;;17.45;13.13;;;13.00;72.10;;;;;;4973115;28;20174;-79
2021/04/30 03:12:34;;;;;;;19.02;13.90;;;13.70;70.80;;;;;;4973585;28;20029;-79
2021/04/30 03:15:00;;;;;;;19.38;14.40;;;14.30;69.20;;;;;;4973811;28;20105;-79
2021/04/30 03:17:27;;;;;;;23.55;14.60;;;14.90;67.70;;;;;;4973361;28;20530;-78
2021/04/30 03:19:53;;;;;;;21.60;14.98;;;15.40;66.00;;;;;;4973407;28;20030;-78
2021/04/30 03:22:19;;;;;;;16.85;13.73;;;16.10;64.60;;;;;;4973457;28;20477;-78
2021/04/30 03:24:46;;;;;;;19.55;13.68;;;16.60;63.10;;;;;;4973894;28;20030;-79
2021/04/30 03:27:12;;;;;;;19.85;12.80;;;17.10;61.70;;;;;;4972984;28;20077;-78
2021/04/30 03:29:37;;;;;;;16.05;12.82;;;17.70;60.40;;;;;;4973272;28;20370;-79
2021/04/30 03:32:03;;;;;;;17.13;11.98;;;18.30;59.00;;;;;;4973307;28;20070;-79
2021/04/30 03:34:29;;;;;;;18.67;12.48;;;18.80;57.50;;;;;;4975405;28;20118;-78
2021/04/30 03:36:55;;;;;;;14.70;11.77;;;19.40;56.40;;;;;;4974701;28;20110;-79
2021/04/30 03:39:20;;;;;;;16.42;11.65;;;20.00;55.20;;;;;;4975211;28;20030;-78
2021/04/30 03:41:46;;;;;;;14.98;10.73;;;20.60;53.60;;;;;;4976298;28;20381;-77
2021/04/30 03:44:12;;;;;;;12.40;10.50;;;21.10;52.50;;;;;;4976582;28;20049;-79
2021/04/30 03:46:38;;;;;;;15.88;11.52;;;21.70;51.30;;;;;;4976451;28;20798;-78
2021/04/30 03:49:05;;;;;;;16.52;10.32;;;22.20;50.30;;;;;;4975002;28;20055;-78
2021/04/30 03:51:31;;;;;;;16.58;11.07;;;22.70;49.20;;;;;;4976255;28;20026;-78
2021/04/30 03:53:56;;;;;;;13.20;10.65;;;23.20;48.00;;;;;;4976154;28;20027;-79
2021/04/30 03:56:22;;;;;;;20.05;11.60;;;23.70;47.10;;;;;;4975392;28;20046;-78
2021/04/30 03:58:48;;;;;;;18.42;11.02;;;24.30;46.10;;;;;;4978243;28;20070;-77
2021/04/30 04:01:17;;;;;;;17.13;10.52;;;24.80;45.10;;;;;;5010477;28;20098;-78
2021/04/30 04:03:42;;;;;;;16.00;11.05;;;25.40;44.10;;;;;;4976368;28;20385;-78
2021/04/30 04:06:08;;;;;;;22.42;10.82;;;25.90;43.40;;;;;;4975485;28;20023;-78
2021/04/30 04:08:40;;;;;;;26.92;11.90;;;26.30;42.60;;;;;;4975457;28;20055;-76
2021/04/30 04:11:05;;;;;;;23.13;12.55;;;26.80;41.70;;;;;;4975166;28;20050;-76
2021/04/30 04:13:31;;;;;;;18.98;11.48;;;27.30;41.40;;;;;;4975545;28;20469;-75
2021/04/30 04:16:02;;;;;;;18.58;11.55;;;27.70;40.60;;;;;;5006333;28;20033;-75
2021/04/30 04:18:28;;;;;;;15.15;11.30;;;28.10;39.90;;;;;;4975193;28;20023;-76
2021/04/30 04:20:53;;;;;;;18.20;11.23;;;28.50;39.60;;;;;;4975149;28;20058;-77
2021/04/30 04:23:19;;;;;;;15.77;11.50;;;28.80;39.10;;;;;;4975170;28;20057;-76
2021/04/30 04:25:45;;;;;;;13.65;10.48;;;29.10;38.60;;;;;;4974883;28;20054;-76
2021/04/30 04:28:11;;;;;;;19.30;13.63;;;29.50;38.10;;;;;;4974985;28;20101;-78
2021/04/30 04:30:37;;;;;;;12.75;11.27;;;29.90;37.80;;;;;;4975139;28;20050;-77
2021/04/30 04:33:03;;;;;;;18.00;11.25;;;30.20;37.30;;;;;;4976554;28;20046;-77
2021/04/30 04:35:29;;;;;;;21.50;10.95;;;30.60;36.70;;;;;;4974683;28;20026;-78
2021/04/30 04:37:55;;;;;;;16.90;10.25;;;31.00;36.40;;;;;;4975026;28;20089;-77
2021/04/30 04:40:22;;;;;;;14.95;10.70;;;31.40;36.10;;;;;;4974897;28;20105;-77
2021/04/30 04:42:47;;;;;;;18.05;10.55;;;31.80;35.70;;;;;;4974462;28;20023;-77
2021/04/30 04:45:15;;;;;;;13.07;10.65;;;32.20;35.20;;;;;;4974506;28;20054;-77
2021/04/30 04:47:41;;;;;;;20.92;11.40;;;32.50;34.90;;;;;;4974709;28;20034;-77
2021/04/30 04:50:08;;;;;;;16.30;11.55;;;32.60;34.50;;;;;;4974843;28;20022;-76
2021/04/30 04:52:34;;;;;;;13.45;10.45;;;32.50;34.20;;;;;;4975119;28;20101;-78
2021/04/30 04:55:00;;;;;;;30.42;11.32;;;32.20;34.20;;;;;;4974900;28;20106;-75
2021/04/30 04:57:25;;;;;;;17.98;10.60;;;31.70;34.10;;;;;;4974681;28;20436;-77
2021/04/30 04:59:51;;;;;;;15.25;11.48;;;31.50;34.70;;;;;;4973449;28;20027;-78
2021/04/30 05:02:17;;;;;;;17.13;11.00;;;31.80;34.80;;;;;;4974196;28;20394;-78
2021/04/30 05:04:43;;;;;;;13.10;10.60;;;32.20;34.60;;;;;;4974420;28;20067;-77
2021/04/30 05:07:08;;;;;;;12.55;9.52;;;32.60;34.40;;;;;;4972900;28;20038;-78
2021/04/30 05:09:34;;;;;;;11.32;9.25;;;33.10;34.00;;;;;;5005488;28;20755;-79
2021/04/30 05:12:00;;;;;;;13.85;10.30;;;33.30;33.60;;;;;;4973721;28;20047;-79
2021/04/30 05:14:25;;;;;;;13.05;10.38;;;33.20;33.30;;;;;;4973862;28;20026;-81
2021/04/30 05:16:51;;;;;;;15.27;11.68;;;32.70;33.10;;;;;;4972185;28;20041;-80
2021/04/30 05:19:17;;;;;;;13.18;10.85;;;31.90;33.10;;;;;;4972107;28;20482;-80
2021/04/30 05:21:46;;;;;;;14.82;11.40;;;31.00;33.50;;;;;;4972745;28;20363;-81
2021/04/30 05:24:12;;;;;;;16.98;10.85;;;30.10;34.00;;;;;;5001961;28;20026;-81
2021/04/30 05:26:38;;;;;;;17.20;11.88;;;29.20;34.60;;;;;;4974348;28;20051;-80
2021/04/30 05:29:04;;;;;;;16.13;12.45;;;28.30;36.10;;;;;;4970437;28;20077;-80
2021/04/30 05:31:30;;;;;;;17.75;10.98;;;27.30;36.20;;;;;;5006700;28;20421;-80
2021/04/30 05:33:56;;;;;;;20.08;12.95;;;26.40;37.20;;;;;;4973194;28;20022;-81
2021/04/30 05:36:22;;;;;;;18.02;12.68;;;25.60;38.20;;;;;;4971781;28;20031;-81
2021/04/30 05:38:48;;;;;;;17.20;11.93;;;25.00;39.10;;;;;;4969931;28;20499;-81
2021/04/30 05:41:13;;;;;;;20.92;14.40;;;24.40;40.10;;;;;;4969887;28;20034;-79
2021/04/30 05:43:39;;;;;;;21.92;13.18;;;23.80;41.00;;;;;;4976924;28;20121;-79
2021/04/30 05:46:05;;;;;;;16.65;12.13;;;23.40;42.00;;;;;;4975560;28;20027;-78
2021/04/30 05:48:31;;;;;;;14.63;11.60;;;23.10;42.80;;;;;;4973174;28;20063;-79
2021/04/30 05:50:56;;;;;;;18.40;11.93;;;22.90;43.30;;;;;;4971592;28;20070;-80
2021/04/30 05:53:22;;;;;;;19.92;13.20;;;22.60;43.90;;;;;;4971584;28;20081;-81
2021/04/30 05:55:49;;;;;;;19.90;11.20;;;22.40;44.50;;;;;;4970943;28;20105;-81
2021/04/30 05:58:15;;;;;;;17.80;12.18;;;22.20;44.90;;;;;;4971046;28;20027;-82
2021/04/30 06:00:40;;;;;;;15.68;10.77;;;22.00;45.50;;;;;;4970649;28;20725;-81
2021/04/30 06:03:06;;;;;;;19.30;12.07;;;22.00;45.80;;;;;;4971158;28;20023;-80
2021/04/30 06:05:32;;;;;;;18.67;11.10;;;21.90;46.00;;;;;;5002176;28;20330;-80
2021/04/30 06:07:57;;;;;;;14.30;9.23;;;22.00;46.40;;;;;;4972721;28;20027;-82
2021/04/30 06:10:23;;;;;;;14.18;9.68;;;22.00;46.50;;;;;;4972637;28;20022;-82
2021/04/30 06:12:49;;;;;;;16.95;9.60;;;22.10;46.70;;;;;;4974116;28;20034;-89
2021/04/30 06:15:15;;;;;;;16.55;9.77;;;22.10;46.70;;;;;;5007859;28;20031;-84
2021/04/30 06:17:41;;;;;;;14.13;8.77;;;22.30;47.40;;;;;;4989700;28;20105;-86
2021/04/30 06:20:07;;;;;;;11.40;9.25;;;23.30;47.80;;;;;;5013017;28;20033;-81
2021/04/30 06:22:33;;;;;;;15.23;10.00;;;24.70;46.70;;;;;;4980780;28;20027;-85
2021/04/30 06:24:59;;;;;;;12.05;7.63;;;26.20;45.20;;;;;;4974191;28;20031;-83
2021/04/30 06:27:25;;;;;;;11.88;7.75;;;27.60;43.40;;;;;;4975511;28;20050;-83
2021/04/30 06:29:51;;;;;;;11.95;8.77;;;28.80;41.80;;;;;;4974876;28;20058;-87
2021/04/30 06:32:17;;;;;;;10.77;7.53;;;29.70;40.30;;;;;;5009641;28;20027;-86
2021/04/30 06:34:42;;;;;;;15.65;7.63;;;30.40;39.00;;;;;;4980662;28;20035;-86
2021/04/30 06:37:08;;;;;;;11.50;7.80;;;31.10;38.30;;;;;;4975983;28;20030;-87
2021/04/30 06:39:34;;;;;;;12.75;8.25;;;31.70;37.40;;;;;;4974515;28;20312;-86
2021/04/30 06:42:02;;;;;;;7.55;6.43;;;32.00;36.80;;;;;;4977140;28;20217;-86
2021/04/30 06:44:32;;;;;;;7.55;6.65;;;32.50;36.20;;;;;;4980055;28;20023;-85
2021/04/30 06:46:58;;;;;;;10.00;7.03;;;33.00;35.60;;;;;;5009085;28;20054;-86
2021/04/30 06:49:24;;;;;;;9.18;7.28;;;33.40;35.10;;;;;;4978237;28;20114;-86
2021/04/30 06:51:50;;;;;;;8.23;6.95;;;33.70;34.70;;;;;;4974670;28;20132;-84
2021/04/30 06:54:17;;;;;;;11.85;6.40;;;34.10;34.40;;;;;;5019233;28;20441;-85
2021/04/30 06:56:43;;;;;;;10.80;6.80;;;34.40;34.00;;;;;;5012780;28;20038;-90
2021/04/30 06:59:09;;;;;;;11.27;6.88;;;34.70;33.80;;;;;;5016143;28;20031;-90
2021/04/30 07:01:35;;;;;;;11.23;5.93;;;34.90;33.40;;;;;;5018491;28;20034;-90
2021/04/30 07:04:01;;;;;;;9.25;5.97;;;35.00;33.10;;;;;;4984384;28;20023;-89
2021/04/30 07:06:26;;;;;;;10.82;5.85;;;35.10;32.90;;;;;;4977698;28;20478;-91
2021/04/30 07:08:53;;;;;;;7.45;5.63;;;35.20;32.60;;;;;;5009053;28;20026;-90
2021/04/30 07:11:19;;;;;;;9.93;5.60;;;35.30;32.50;;;;;;5012306;28;20030;-90
2021/04/30 07:13:45;;;;;;;10.30;6.00;;;35.30;32.10;;;;;;5011687;28;20379;-91
2021/04/30 07:16:11;;;;;;;13.68;8.27;;;35.20;32.70;;;;;;4982980;28;20023;-90
2021/04/30 07:18:36;;;;;;;8.13;5.60;;;35.20;31.70;;;;;;5019204;28;20045;-91
2021/04/30 07:21:04;;;;;;;15.18;6.15;;;35.00;31.40;;;;;;4983613;28;20030;-89
2021/04/30 07:23:30;;;;;;;13.93;5.72;;;34.70;31.60;;;;;;5015221;28;20532;-92
2021/04/30 07:25:56;;;;;;;7.50;4.97;;;34.60;31.80;;;;;;5014840;28;20051;-91
2021/04/30 07:28:23;;;;;;;15.80;5.90;;;34.30;31.60;;;;;;5026817;28;20054;-90
2021/04/30 07:30:50;;;;;;;6.20;5.25;;;34.10;31.80;;;;;;4993874;28;20426;-91
2021/04/30 07:33:15;;;;;;;8.82;5.80;;;34.00;31.80;;;;;;5014377;28;20031;-92
2021/04/30 07:35:42;;;;;;;7.53;5.53;;;33.80;31.90;;;;;;4982223;28;20030;-93
2021/04/30 07:38:12;;;;;;;9.43;4.63;;;33.70;31.90;;;;;;5016760;28;20027;-91
2021/04/30 07:40:39;;;;;;;7.97;5.32;;;33.60;32.00;;;;;;5014566;28;20465;-93
2021/04/30 07:43:07;;;;;;;9.40;5.00;;;33.60;32.10;;;;;;4981640;28;20023;-93
2021/04/30 07:45:34;;;;;;;6.40;5.05;;;33.60;32.30;;;;;;5017006;28;20023;-92
2021/04/30 07:48:00;;;;;;;7.18;3.97;;;33.70;32.30;;;;;;5016566;28;20042;-92
2021/04/30 07:50:26;;;;;;;13.48;4.97;;;33.70;32.00;;;;;;5017653;28;20031;-91
2021/04/30 07:52:52;;;;;;;6.07;4.40;;;33.60;32.00;;;;;;4990670;28;20086;-90
2021/04/30 07:55:18;;;;;;;8.88;5.28;;;33.50;31.40;;;;;;5014295;28;20061;-93
2021/04/30 07:57:44;;;;;;;7.05;5.50;;;33.40;31.50;;;;;;5015321;28;20367;-93
2021/04/30 08:00:13;;;;;;;7.28;4.22;;;33.20;30.70;;;;;;4984652;28;20030;-92
2021/04/30 08:02:39;;;;;;;10.70;5.75;;;33.00;30.70;;;;;;4996491;28;20023;-91
2021/04/30 08:05:06;;;;;;;11.93;6.60;;;32.80;31.00;;;;;;5025984;28;20098;-91
2021/04/30 08:07:32;;;;;;;9.27;4.75;;;32.60;30.80;;;;;;4986395;28;20038;-91
2021/04/30 08:09:57;;;;;;;6.35;4.40;;;32.50;30.90;;;;;;5014093;28;20022;-91
2021/04/30 08:12:24;;;;;;;10.15;4.18;;;32.00;30.90;;;;;;4980013;28;20030;-93
2021/04/30 08:14:49;;;;;;;8.48;3.90;;;31.70;31.20;;;;;;5012956;28;20121;-88
2021/04/30 08:17:15;;;;;;;11.45;4.50;;;31.20;31.40;;;;;;5011352;28;20505;-90
2021/04/30 08:19:41;;;;;;;10.27;3.45;;;30.90;32.00;;;;;;4979313;28;20021;-89
2021/04/30 08:22:08;;;;;;;9.13;3.40;;;30.70;32.10;;;;;;5010211;28;20053;-89
2021/04/30 08:24:34;;;;;;;7.57;3.95;;;30.60;32.40;;;;;;5010670;28;20081;-89
2021/04/30 08:27:00;;;;;;;4.53;3.65;;;30.50;32.60;;;;;;5010313;28;20055;-81
2021/04/30 08:29:26;;;;;;;10.70;4.20;;;30.40;32.90;;;;;;4977683;28;20027;-84
2021/04/30 08:31:51;;;;;;;6.00;4.65;;;30.40;33.20;;;;;;5009574;28;20504;-86
2021/04/30 08:34:17;;;;;;;7.70;3.97;;;30.20;33.60;;;;;;5011039;28;20417;-86
2021/04/30 08:36:43;;;;;;;32.83;23.08;;;30.00;33.80;;;;;;4987926;28;20038;-85
2021/04/30 08:39:10;;;;;;;17.45;9.80;;;29.90;33.60;;;;;;4987079;28;20042;-86
2021/04/30 08:41:52;;;;;;;12.85;5.03;;;29.70;33.70;;;;;;5018480;28;20034;-86
2021/04/30 08:44:41;;;;;;;5.82;4.00;;;29.70;33.80;;;;;;5019031;28;20099;-86
2021/04/30 08:47:10;;;;;;;8.85;4.30;;;29.60;34.00;;;;;;4981637;28;20115;-86
2021/04/30 08:49:38;;;;;;;9.10;4.32;;;29.50;34.20;;;;;;4981205;28;20054;-87
2021/04/30 08:52:09;;;;;;;7.97;3.92;;;29.30;34.50;;;;;;5013498;28;20085;-90
2021/04/30 08:54:36;;;;;;;11.68;4.57;;;29.20;34.50;;;;;;5012508;28;20386;-89
2021/04/30 08:57:26;;;;;;;10.43;4.53;;;28.90;34.60;;;;;;5010630;28;20046;-89
2021/04/30 09:00:01;;;;;;;9.25;4.45;;;28.70;35.20;;;;;;5012908;28;20027;-90
2021/04/30 09:02:37;;;;;;;12.82;4.45;;;28.50;35.40;;;;;;5013640;28;20504;-90
2021/04/30 09:05:28;;;;;;;7.80;4.50;;;28.40;35.70;;;;;;4982518;28;20023;-91
2021/04/30 09:08:03;;;;;;;9.07;4.28;;;28.20;35.80;;;;;;5016780;28;20030;-91
2021/04/30 09:10:47;;;;;;;11.50;4.85;;;28.10;35.80;;;;;;5019700;28;20037;-90
2021/04/30 09:13:16;;;;;;;7.72;4.55;;;27.90;36.00;;;;;;5011531;28;20039;-86
2021/04/30 09:15:44;;;;;;;11.30;3.80;;;27.80;36.50;;;;;;4991498;28;20037;-85
2021/04/30 09:18:16;;;;;;;10.48;4.50;;;27.80;36.60;;;;;;4985362;28;20023;-87
2021/04/30 09:20:44;;;;;;;7.15;4.25;;;27.80;36.40;;;;;;5017262;28;20030;-86
2021/04/30 09:23:29;;;;;;;12.63;4.80;;;27.70;36.50;;;;;;5014879;28;20035;-86
2021/04/30 09:25:55;;;;;;;10.07;4.78;;;27.70;36.50;;;;;;5008948;28;20073;-87
2021/04/30 09:28:21;;;;;;;10.32;5.28;;;27.60;36.40;;;;;;5008093;28;20477;-85
2021/04/30 09:30:47;;;;;;;8.30;3.92;;;27.50;36.40;;;;;;5007782;28;20074;-88
2021/04/30 09:33:23;;;;;;;6.50;4.50;;;27.50;36.80;;;;;;5008427;28;20425;-88
2021/04/30 09:35:55;;;;;;;10.98;5.45;;;27.40;36.80;;;;;;5014921;28;20105;-89
2021/04/30 09:38:33;;;;;;;;;;;27.30;36.80;;;;;;5009518;28;20031;-89
2021/04/30 09:41:07;;;;;;;9.88;4.97;;;27.10;36.70;;;;;;4977949;28;19890;-90
2021/04/30 09:43:45;;;;;;;9.02;4.85;;;27.00;36.80;;;;;;5009728;28;20113;-88
2021/04/30 09:46:37;;;;;;;8.85;4.35;;;26.80;37.10;;;;;;4979007;28;20038;-88
2021/04/30 09:49:16;;;;;;;4.40;3.90;;;26.70;37.40;;;;;;5026949;28;20031;-87
2021/04/30 09:51:46;;;;;;;7.40;4.90;;;26.80;37.50;;;;;;5013084;28;20406;-89
2021/04/30 09:54:18;;;;;;;8.80;5.10;;;26.80;37.70;;;;;;5010365;28;20023;-91
2021/04/30 09:56:46;;;;;;;12.85;5.20;;;26.80;37.50;;;;;;5008350;28;20046;-89
2021/04/30 09:59:21;;;;;;;7.63;4.57;;;26.70;37.60;;;;;;4977196;28;20026;-87
2021/04/30 10:02:01;;;;;;;8.50;4.38;;;26.60;37.90;;;;;;5008424;28;20029;-88
2021/04/30 10:04:31;;;;;;;6.47;4.15;;;26.50;38.00;;;;;;5007989;28;20536;-89
2021/04/30 10:06:57;;;;;;;8.55;3.95;;;26.60;38.00;;;;;;4975777;28;20054;-89
2021/04/30 10:09:26;;;;;;;9.88;4.40;;;26.50;37.90;;;;;;4974602;28;20041;-90
2021/04/30 10:11:52;;;;;;;7.22;4.10;;;26.50;38.00;;;;;;4976492;28;20030;-87
2021/04/30 10:14:18;;;;;;;6.28;3.90;;;26.50;38.10;;;;;;5005964;28;20042;-83
2021/04/30 10:16:43;;;;;;;7.72;4.22;;;26.40;38.10;;;;;;4974072;28;20106;-83
2021/04/30 10:19:09;;;;;;;10.90;4.07;;;26.40;38.30;;;;;;4974244;28;20498;-83
2021/04/30 10:21:42;;;;;;;8.00;4.28;;;26.50;38.40;;;;;;4976368;28;20100;-83
2021/04/30 10:24:15;;;;;;;10.40;4.88;;;26.50;38.40;;;;;;5010164;28;20019;-83
2021/04/30 10:26:41;;;;;;;7.47;4.40;;;26.50;38.50;;;;;;5005777;28;20047;-82
2021/04/30 10:29:10;;;;;;;13.05;4.20;;;26.60;38.40;;;;;;4976092;28;20058;-87
2021/04/30 10:31:43;;;;;;;12.50;4.30;;;26.70;38.30;;;;;;4976256;28;20618;-89
2021/04/30 10:34:21;;;;;;;11.18;4.10;;;26.80;38.60;;;;;;5006193;28;20031;-81
2021/04/30 10:36:53;;;;;;;6.53;3.80;;;26.80;38.50;;;;;;4973584;28;20027;-78
2021/04/30 10:39:24;;;;;;;;;;;26.80;38.30;;;;;;4973284;28;20031;-81
2021/04/30 10:41:50;;;;;;;14.50;4.85;;;26.80;38.30;;;;;;4971438;28;20001;-79
2021/04/30 10:44:31;;;;;;;9.48;3.63;;;26.70;38.50;;;;;;4976126;28;20098;-81
2021/04/30 10:47:09;;;;;;;9.20;3.92;;;26.60;38.80;;;;;;4977000;28;20114;-81
2021/04/30 10:49:35;;;;;;;11.05;3.85;;;26.60;39.10;;;;;;5008212;28;20490;-82
2021/04/30 10:52:05;;;;;;;7.82;3.50;;;26.60;38.80;;;;;;4976903;28;20065;-82
2021/04/30 10:54:32;;;;;;;10.80;3.92;;;26.40;38.70;;;;;;4977666;28;20043;-85
2021/04/30 10:57:09;;;;;;;7.38;4.15;;;26.30;39.10;;;;;;4981981;28;20023;-76
2021/04/30 10:59:40;;;;;;;9.77;4.35;;;26.30;39.30;;;;;;4977254;28;20090;-79
2021/04/30 11:02:27;;;;;;;6.35;3.55;;;26.30;39.10;;;;;;5008109;28;20105;-79
2021/04/30 11:05:13;;;;;;;11.75;3.97;;;26.10;38.90;;;;;;4976314;28;20037;-77
2021/04/30 11:07:41;;;;;;;9.70;3.97;;;25.90;38.90;;;;;;4976298;28;20019;-80
2021/04/30 11:13:06;;;;;;;12.93;4.72;;;25.60;39.50;;;;;;4976981;28;20030;-84
2021/04/30 11:15:51;;;;;;;11.35;4.43;;;25.40;39.80;;;;;;4976829;28;20043;-83
2021/04/30 11:18:22;;;;;;;5.07;3.72;;;25.30;40.20;;;;;;5008879;28;20030;-84
2021/04/30 11:21:05;;;;;;;6.72;4.47;;;25.20;40.50;;;;;;5008648;28;20122;-86
2021/04/30 11:23:42;;;;;;;9.40;4.85;;;25.10;40.70;;;;;;4977712;28;20019;-84
2021/04/30 11:26:12;;;;;;;13.25;4.22;;;25.00;41.40;;;;;;4976335;28;20130;-85
2021/04/30 11:28:37;;;;;;;12.27;4.13;;;24.90;41.00;;;;;;5008817;28;20102;-85
2021/04/30 11:31:09;;;;;;;10.63;4.25;;;24.80;40.80;;;;;;5012036;28;20034;-85
2021/04/30 11:33:38;;;;;;;6.73;3.63;;;24.80;40.90;;;;;;5015983;28;20055;-88
2021/04/30 11:36:21;;;;;;;9.68;3.80;;;25.00;41.10;;;;;;4994112;28;20022;-85
2021/04/30 11:38:50;;;;;;;13.57;3.95;;;25.00;41.00;;;;;;5017944;28;20035;-86
2021/04/30 11:41:16;;;;;;;10.15;3.80;;;25.10;41.10;;;;;;4976392;28;20023;-85
2021/04/30 11:43:51;;;;;;;15.10;4.32;;;25.20;41.00;;;;;;5008977;28;20110;-87
2021/04/30 11:46:18;;;;;;;11.77;4.20;;;25.20;40.90;;;;;;4978088;28;20050;-92
2021/04/30 11:48:45;;;;;;;9.45;4.00;;;25.20;41.00;;;;;;4978313;28;20022;-87
2021/04/30 11:51:13;;;;;;;6.60;4.05;;;25.30;41.80;;;;;;5008909;28;20026;-86
2021/04/30 11:53:43;;;;;;;10.52;3.60;;;25.30;41.00;;;;;;4977367;28;20061;-86
2021/04/30 11:56:10;;;;;;;8.88;4.38;;;25.20;40.70;;;;;;4976463;28;20027;-84
2021/04/30 11:58:43;;;;;;;6.90;4.15;;;25.20;40.90;;;;;;4976889;28;20022;-79
2021/04/30 12:01:11;;;;;;;6.22;3.92;;;25.10;41.20;;;;;;4976296;28;20026;-80
2021/04/30 12:03:55;;;;;;;7.88;3.90;;;25.00;41.30;;;;;;4976548;28;20027;-81
2021/04/30 12:06:22;;;;;;;8.38;4.47;;;25.10;41.60;;;;;;5007401;28;20027;-81
2021/04/30 12:08:49;;;;;;;8.43;4.05;;;25.20;41.60;;;;;;5008691;28;20046;-80
2021/04/30 12:11:28;;;;;;;14.05;4.65;;;25.20;41.60;;;;;;4977118;28;20105;-80
2021/04/30 12:13:56;;;;;;;9.50;4.28;;;25.30;41.60;;;;;;4976988;28;20054;-81
2021/04/30 12:16:22;;;;;;;10.50;4.90;;;25.20;41.60;;;;;;4976519;28;20055;-81
2021/04/30 12:18:50;;;;;;;14.88;4.38;;;25.20;41.80;;;;;;4976231;28;20066;-84
2021/04/30 12:21:36;;;;;;;9.18;4.45;;;25.20;41.90;;;;;;4976624;28;20030;-83
2021/04/30 12:24:05;;;;;;;7.25;4.10;;;25.10;42.00;;;;;;4976472;28;20064;-84
2021/04/30 12:26:33;;;;;;;9.77;4.15;;;25.00;42.00;;;;;;4977227;28;20114;-92
2021/04/30 12:29:00;;;;;;;11.10;4.43;;;24.90;42.20;;;;;;4979072;28;20023;-87
2021/04/30 12:31:27;;;;;;;10.63;4.22;;;24.80;42.40;;;;;;5007959;28;20038;-85
2021/04/30 12:34:03;;;;;;;9.00;4.90;;;24.70;42.50;;;;;;4976969;28;20031;-85
2021/04/30 12:36:33;;;;;;;11.82;5.25;;;24.70;42.80;;;;;;4978255;28;20136;-87
2021/04/30 12:39:03;;;;;;;12.38;4.80;;;24.60;42.90;;;;;;4980545;28;20090;-88
2021/04/30 12:41:31;;;;;;;9.88;4.75;;;24.70;42.80;;;;;;5009107;28;20039;-85
2021/04/30 12:44:23;;;;;;;7.63;4.85;;;24.70;42.80;;;;;;4979953;28;20054;-84